Dodge City Regional Airport
KDDC : now visible

Aeroporto :











RITROVATECI SU...

 
LOGIN :

Iscrizione | Disclaimer

   EN    FR    IT 

 









Sommario :    VFR   VFR Marginale   IFR   IFR Intensivo   IFR Molto Intensivo
Visibilità : 
Base nubi : 
>= 8 km
>= 3000ft
5 / 8 km
1000 / 3000 ft
1500m / 5 km
500 / 1000 ft
800 / 1500m
200 / 500 ft
< 800m
< 200 ft
Simboli :   Temporali  Nebbia  Neve Forte  Precipitazioni Forti  Vento > 20 kt






- Altitudine del aeroporto : 2594 ft
- Codice IATA : DDC


KDDC - Dodge City Regional

ULTIMO METAR :
  • 070052Z AUTO 16006KT 9SM CLR 01/M05 A3032 RMK AO2 SLP283 T00111050

METARs OBSOLETI :
  • 062352Z AUTO 15007KT 8SM CLR 02/M04 A3031 RMK AO2 SLP279 T00221044 10083 20022 57001
  • 062252Z AUTO 16004KT 9SM CLR 06/M04 A3031 RMK AO2 SLP275 T00611039

TAF KDDC
Valido dal 07 a 00 ore il 08 a 00 ore UTC


062320Z 0700/0724 VRB06KT P6SM SKC
FM071600 19016G24KT P6SM SKC
FM072000 18020G28KT P6SM SKC



MetMap, La meteo Aeronautica in un colpo d'occhio ! - Copyright ORBIFLY Dicembre 2007 - Disclaimer

ORBIFLY MET'MAP TEAM :

Programmazione e sviluppo : Alexandra Zaïnal
Concezione : Baudouin d'Aumeries
Aiuto per la programmazione : Marc-Olivier Méhu
Supporto tecnico e logistico : Manuel Goepfert
Aiuto per la traduzione : Arnaldo La Scala

Contatto : metmap@orbifly.com




FONTI E CREDITI :

   NOAA       Earth
Advisory